Time;durP1;ratioP1;P1;durP2;ratioP2;P2;SDS_P1;SDS_P2;PMS_P1;PMS_P2;Temp;Humidity;BMP_temperature;BMP_pressure;BME280_temperature;BME280_humidity;BME280_pressure;Samples;Min_cycle;Max_cycle;Signal;HPM_P1;HPM_P2
2023/05/15 00:00:39;;;;;;;2.22;1.83;;;;;;;12.66;100.00;98255.22;4111446;28;20305;-45
2023/05/15 00:02:41;;;;;;;1.73;1.63;;;;;;;12.69;100.00;98257.41;4125620;28;21101;-44
2023/05/15 00:04:43;;;;;;;1.95;1.85;;;;;;;12.69;100.00;98250.03;4122382;28;20207;-44
2023/05/15 00:06:45;;;;;;;1.92;1.83;;;;;;;12.77;100.00;98252.22;4111585;28;20210;-45
2023/05/15 00:08:47;;;;;;;1.40;1.30;;;;;;;12.78;100.00;98253.06;4126554;28;20210;-44
2023/05/15 00:10:49;;;;;;;1.63;1.52;;;;;;;12.76;100.00;98255.28;4131505;28;20232;-43
2023/05/15 00:13:02;;;;;;;2.05;1.95;;;;;;;12.74;100.00;98246.44;4129697;28;20668;-44
2023/05/15 00:15:04;;;;;;;2.00;1.90;;;;;;;12.73;100.00;98247.56;4111553;28;20226;-44
2023/05/15 00:17:07;;;;;;;2.75;1.60;;;;;;;12.75;100.00;98246.19;4126938;28;20218;-44
2023/05/15 00:19:09;;;;;;;1.95;1.73;;;;;;;12.76;100.00;98247.84;4121135;28;20309;-44
2023/05/15 00:21:11;;;;;;;1.98;1.80;;;;;;;12.75;100.00;98248.94;4128096;28;20230;-45
2023/05/15 00:23:13;;;;;;;2.75;1.50;;;;;;;12.75;100.00;98243.44;4141487;28;20216;-45
2023/05/15 00:25:15;;;;;;;1.98;1.88;;;;;;;12.72;100.00;98243.16;4124216;28;20219;-44
2023/05/15 00:27:16;;;;;;;2.22;1.98;;;;;;;12.68;100.00;98237.38;4125956;28;20249;-44
2023/05/15 00:29:18;;;;;;;2.00;1.90;;;;;;;12.64;100.00;98241.75;4126373;28;20292;-44
2023/05/15 00:31:20;;;;;;;1.70;1.60;;;;;;;12.62;100.00;98238.47;4126621;28;20261;-44
2023/05/15 00:33:22;;;;;;;1.55;1.45;;;;;;;12.51;100.00;98233.22;4142366;28;20209;-44
2023/05/15 00:35:24;;;;;;;4.60;2.10;;;;;;;12.61;100.00;98236.81;4125812;28;20234;-43
2023/05/15 00:37:26;;;;;;;1.80;1.70;;;;;;;12.45;100.00;98232.34;4126434;28;20720;-44
2023/05/15 00:39:27;;;;;;;2.42;2.22;;;;;;;12.26;100.00;98239.44;4142628;28;20636;-44
2023/05/15 00:41:31;;;;;;;2.03;1.92;;;;;;;12.35;100.00;98240.56;4119005;28;20234;-45
2023/05/15 00:43:33;;;;;;;1.45;1.35;;;;;;;12.35;100.00;98235.06;4125641;28;20206;-43
2023/05/15 00:45:35;;;;;;;1.77;1.67;;;;;;;12.34;100.00;98244.41;4126770;28;20241;-43
2023/05/15 00:47:38;;;;;;;1.60;1.50;;;;;;;12.31;100.00;98242.19;4124224;28;20624;-44
2023/05/15 00:49:40;;;;;;;1.95;1.85;;;;;;;12.31;100.00;98242.19;4125950;28;20252;-44
2023/05/15 00:51:42;;;;;;;1.88;1.58;;;;;;;12.33;100.00;98245.50;4122406;28;20230;-44
2023/05/15 00:53:44;;;;;;;1.92;1.83;;;;;;;12.36;100.00;98238.66;4118004;28;20730;-45
2023/05/15 00:55:46;;;;;;;2.67;1.77;;;;;;;12.33;100.00;98231.78;4126300;28;20213;-44
2023/05/15 00:57:48;;;;;;;4.10;1.95;;;;;;;12.30;100.00;98237.78;4123973;28;20217;-44
2023/05/15 00:59:51;;;;;;;1.83;1.63;;;;;;;12.24;100.00;98235.31;4140215;28;20237;-43
2023/05/15 01:01:53;;;;;;;1.80;1.70;;;;;;;12.22;100.00;98235.56;4138030;28;20328;-45
2023/05/15 01:03:54;;;;;;;2.13;1.95;;;;;;;12.23;100.00;98228.97;4125127;28;20250;-45
2023/05/15 01:05:56;;;;;;;3.45;1.88;;;;;;;12.23;100.00;98233.66;4141602;28;20232;-45
2023/05/15 01:08:03;;;;;;;1.60;1.50;;;;;;;12.18;100.00;98231.69;4126804;28;20253;-44
2023/05/15 01:10:06;;;;;;;2.40;2.10;;;;;;;12.15;100.00;98231.41;4141576;28;20288;-44
2023/05/15 01:12:09;;;;;;;5.75;1.80;;;;;;;12.16;100.00;98227.59;4143459;28;20576;-44
2023/05/15 01:14:10;;;;;;;1.83;1.73;;;;;;;12.19;100.00;98229.78;4125516;28;20210;-45
2023/05/15 01:16:12;;;;;;;1.88;1.77;;;;;;;12.16;100.00;98233.88;4126210;28;20237;-44
2023/05/15 01:18:15;;;;;;;3.72;2.28;;;;;;;12.16;100.00;98228.41;4129236;28;20342;-44
2023/05/15 01:20:17;;;;;;;2.72;1.90;;;;;;;12.17;100.00;98224.56;4141088;28;20221;-44
2023/05/15 01:22:39;;;;;;;1.80;1.70;;;;;;;12.15;100.00;98232.25;4109928;28;20641;-44
2023/05/15 01:24:47;;;;;;;2.90;2.10;;;;;;;12.19;100.00;98233.38;4143440;28;20636;-44
2023/05/15 01:26:49;;;;;;;1.60;1.50;;;;;;;12.18;100.00;98226.22;4143812;28;20209;-43
2023/05/15 01:28:58;;;;;;;1.95;1.85;;;;;;;12.13;100.00;98233.59;4127458;28;20214;-44
2023/05/15 01:31:06;;;;;;;2.45;2.00;;;;;;;12.10;100.00;98223.16;4142646;28;20256;-45
2023/05/15 01:33:26;;;;;;;1.85;1.75;;;;;;;12.17;100.00;98219.06;4113512;28;20253;-45
2023/05/15 01:35:57;;;;;;;3.10;1.92;;;;;;;12.10;100.00;98220.44;4141449;28;20205;-44
2023/05/15 01:38:35;;;;;;;2.47;2.28;;;;;;;11.99;100.00;98222.28;4125472;28;20252;-44
2023/05/15 01:40:36;;;;;;;2.13;2.03;;;;;;;11.98;100.00;98215.13;4140957;28;20287;-44
2023/05/15 01:42:41;;;;;;;2.20;1.80;;;;;;;12.01;100.00;98214.63;4126625;28;20297;-45
2023/05/15 01:44:47;;;;;;;2.35;2.15;;;;;;;12.00;100.00;98212.13;4126191;28;20680;-44
2023/05/15 01:46:51;;;;;;;2.10;1.90;;;;;;;11.95;100.00;98214.84;4124570;28;20210;-45
2023/05/15 01:48:54;;;;;;;2.17;2.00;;;;;;;11.92;100.00;98216.19;4141449;28;20217;-44
2023/05/15 01:50:58;;;;;;;2.65;2.00;;;;;;;11.92;100.00;98216.19;4126272;28;20234;-44
2023/05/15 01:53:01;;;;;;;2.55;1.67;;;;;;;11.91;100.00;98214.56;4123595;28;20341;-44
2023/05/15 01:55:05;;;;;;;5.60;1.77;;;;;;;11.92;100.00;98220.88;4127289;28;20268;-44
2023/05/15 01:57:09;;;;;;;2.28;1.83;;;;;;;11.96;100.00;98219.25;4142303;28;20218;-44
2023/05/15 01:59:12;;;;;;;2.75;2.00;;;;;;;11.91;100.00;98219.22;4142579;28;20269;-44
2023/05/15 02:01:15;;;;;;;4.70;1.60;;;;;;;11.86;100.00;98217.28;4122821;28;20246;-45
2023/05/15 02:03:18;;;;;;;1.67;1.58;;;;;;;11.83;100.00;98214.25;4144010;28;20611;-44
2023/05/15 02:05:20;;;;;;;5.10;2.03;;;;;;;11.83;100.00;98217.81;4142371;28;20206;-45
2023/05/15 02:07:22;;;;;;;1.80;1.70;;;;;;;11.82;100.00;98224.38;4141243;28;20240;-46
2023/05/15 02:09:25;;;;;;;2.97;1.70;;;;;;;11.84;100.00;98224.94;4139658;28;20205;-44
2023/05/15 02:11:26;;;;;;;2.95;2.00;;;;;;;11.83;100.00;98217.81;4141796;28;20221;-44
2023/05/15 02:13:30;;;;;;;1.90;1.80;;;;;;;11.81;100.00;98220.00;4119764;28;20290;-44
2023/05/15 02:15:32;;;;;;;2.38;2.17;;;;;;;11.77;100.00;98218.84;4145799;28;20217;-45
2023/05/15 02:17:33;;;;;;;4.05;3.15;;;;;;;11.78;100.00;98223.25;4144497;28;20673;-44
2023/05/15 02:19:35;;;;;;;2.35;1.60;;;;;;;11.75;100.00;98221.03;4127558;28;20206;-44
2023/05/15 02:21:37;;;;;;;1.88;1.70;;;;;;;11.81;100.00;98214.50;4112516;28;20269;-43
2023/05/15 02:23:39;;;;;;;2.00;1.90;;;;;;;11.81;100.00;98222.72;4143637;28;20201;-44
2023/05/15 02:26:00;;;;;;;2.60;2.22;;;;;;;11.71;100.00;98225.41;4126021;28;20759;-44
2023/05/15 02:28:04;;;;;;;1.80;1.70;;;;;;;11.26;100.00;98227.78;4128998;28;20218;-44
2023/05/15 02:30:28;;;;;;;2.45;2.28;;;;;;;11.19;100.00;98215.38;4127744;28;20309;-45
2023/05/15 02:32:36;;;;;;;2.90;2.70;;;;;;;11.19;100.00;98218.13;4127060;28;20304;-44
2023/05/15 02:34:47;;;;;;;2.25;2.15;;;;;;;11.25;100.00;98226.13;4125792;28;20198;-44
2023/05/15 02:36:51;;;;;;;3.58;1.92;;;;;;;11.26;100.00;98211.34;4143730;28;20205;-44
2023/05/15 02:38:53;;;;;;;2.00;1.77;;;;;;;11.28;100.00;98211.91;4128073;28;20296;-44
2023/05/15 02:40:56;;;;;;;4.93;2.17;;;;;;;11.29;100.00;98216.31;4143987;28;20233;-44
2023/05/15 02:42:58;;;;;;;2.40;2.20;;;;;;;11.28;100.00;98213.81;4145068;28;20213;-44
2023/05/15 02:45:00;;;;;;;2.85;2.65;;;;;;;11.29;100.00;98216.31;4127823;28;20668;-44
2023/05/15 02:47:03;;;;;;;2.47;2.28;;;;;;;11.29;100.00;98221.78;4129455;28;20241;-44
2023/05/15 02:49:05;;;;;;;2.10;1.90;;;;;;;11.36;100.00;98216.06;4144663;28;20717;-44
2023/05/15 02:51:08;;;;;;;4.07;1.60;;;;;;;11.46;100.00;98216.16;4127448;28;20229;-45
2023/05/15 02:53:10;;;;;;;1.88;1.73;;;;;;;11.47;100.00;98215.06;4128315;28;20659;-45
2023/05/15 02:55:12;;;;;;;2.50;2.28;;;;;;;11.50;100.00;98214.56;4127567;28;20305;-45
2023/05/15 02:57:14;;;;;;;1.95;1.85;;;;;;;11.50;100.00;98215.34;4129132;28;20205;-45
2023/05/15 02:59:18;;;;;;;3.20;2.30;;;;;;;11.51;100.00;98213.47;4128147;28;20249;-43
2023/05/15 03:01:20;;;;;;;1.95;1.80;;;;;;;11.52;100.00;98215.91;4127782;28;20244;-45
2023/05/15 03:03:22;;;;;;;2.67;2.47;;;;;;;11.52;100.00;98218.66;4129236;28;21109;-44
2023/05/15 03:05:24;;;;;;;3.90;2.25;;;;;;;11.58;100.00;98214.88;4128492;28;20289;-43
2023/05/15 03:07:27;;;;;;;2.40;2.13;;;;;;;11.57;100.00;98207.72;4144907;28;20682;-45
2023/05/15 03:09:28;;;;;;;3.35;2.40;;;;;;;11.57;100.00;98207.72;4132630;28;20217;-45
2023/05/15 03:11:30;;;;;;;1.88;1.77;;;;;;;11.56;100.00;98206.09;4143247;28;20600;-44
2023/05/15 03:13:32;;;;;;;2.22;2.13;;;;;;;11.54;100.00;98208.28;4117066;28;20246;-44
2023/05/15 03:15:34;;;;;;;2.25;2.08;;;;;;;11.51;100.00;98203.31;4112154;28;20211;-45
2023/05/15 03:17:36;;;;;;;3.42;1.83;;;;;;;11.46;100.00;98195.06;4111868;28;20296;-43
2023/05/15 03:19:38;;;;;;;2.65;2.45;;;;;;;11.45;100.00;98209.84;4132948;28;20206;-44
2023/05/15 03:21:40;;;;;;;3.22;2.92;;;;;;;11.26;100.00;98200.41;4128541;28;20237;-44
2023/05/15 03:23:41;;;;;;;3.03;2.83;;;;;;;11.21;100.00;98214.06;4127790;28;20241;-44
2023/05/15 03:25:43;;;;;;;2.92;2.40;;;;;;;11.29;100.00;98204.50;4126188;28;20242;-43
2023/05/15 03:27:45;;;;;;;4.80;2.78;;;;;;;11.28;100.00;98209.19;4127915;28;20322;-45
2023/05/15 03:29:49;;;;;;;2.35;2.15;;;;;;;11.32;100.00;98204.81;4127391;28;20720;-44
2023/05/15 03:31:51;;;;;;;2.58;2.38;;;;;;;11.28;100.00;98203.69;4125562;28;20237;-44
2023/05/15 03:33:53;;;;;;;2.33;2.13;;;;;;;11.31;100.00;98203.16;4142583;28;20237;-43
2023/05/15 03:35:55;;;;;;;2.55;2.35;;;;;;;11.35;100.00;98209.78;4125915;28;20232;-44
2023/05/15 03:37:57;;;;;;;2.50;2.40;;;;;;;11.41;100.00;98219.69;4142543;28;20271;-45
2023/05/15 03:39:58;;;;;;;2.13;2.03;;;;;;;11.38;100.00;98220.19;4126929;28;20231;-45
2023/05/15 03:42:00;;;;;;;2.00;1.90;;;;;;;11.51;100.00;98214.25;4126221;28;20576;-44
2023/05/15 03:44:02;;;;;;;2.45;2.03;;;;;;;11.17;100.00;98228.53;4139406;28;20214;-45
2023/05/15 03:46:04;;;;;;;2.58;2.30;;;;;;;11.25;100.00;98215.16;4136503;28;20213;-44
2023/05/15 03:48:07;;;;;;;2.30;2.05;;;;;;;11.06;100.00;98222.13;4141419;28;20233;-44
2023/05/15 03:50:09;;;;;;;2.95;2.75;;;;;;;10.94;100.00;98224.22;4122568;28;20213;-44
2023/05/15 03:52:11;;;;;;;2.50;2.33;;;;;;;11.09;100.00;98221.59;4117499;28;20228;-45
2023/05/15 03:54:13;;;;;;;2.28;2.17;;;;;;;11.04;100.00;98228.97;4121050;28;20225;-45
2023/05/15 03:56:14;;;;;;;2.55;2.38;;;;;;;11.07;100.00;98221.06;4143167;28;20209;-44
2023/05/15 03:58:16;;;;;;;2.60;2.42;;;;;;;11.11;100.00;98224.91;4120792;28;20245;-43
2023/05/15 04:00:18;;;;;;;2.72;2.42;;;;;;;11.20;100.00;98226.09;4121775;28;20257;-44
2023/05/15 04:02:20;;;;;;;2.25;2.00;;;;;;;11.17;100.00;98223.06;4118660;28;21822;-44
2023/05/15 04:04:21;;;;;;;3.35;2.63;;;;;;;11.16;100.00;98233.16;4141046;28;20220;-44
2023/05/15 04:06:23;;;;;;;2.85;2.65;;;;;;;11.16;100.00;98227.69;4125233;28;20638;-44
2023/05/15 04:08:25;;;;;;;10.07;2.28;;;;;;;11.14;100.00;98229.88;4146459;28;20300;-44
2023/05/15 04:10:28;;;;;;;3.75;2.42;;;;;;;11.16;100.00;98233.16;4146408;28;20304;-44
2023/05/15 04:12:33;;;;;;;2.70;2.50;;;;;;;11.16;100.00;98238.66;4125186;28;20233;-43
2023/05/15 04:14:35;;;;;;;3.35;2.40;;;;;;;11.21;100.00;98233.22;4120743;28;20206;-44
2023/05/15 04:16:37;;;;;;;2.53;2.33;;;;;;;11.23;100.00;98236.50;4140801;28;20197;-43
2023/05/15 04:18:39;;;;;;;2.70;2.35;;;;;;;11.29;100.00;98230.00;4138458;28;20631;-43
2023/05/15 04:20:41;;;;;;;2.35;2.25;;;;;;;11.24;100.00;98229.94;4123058;28;20237;-45
2023/05/15 04:22:43;;;;;;;2.75;2.35;;;;;;;11.27;100.00;98229.44;4141460;28;20216;-44
2023/05/15 04:24:45;;;;;;;3.13;2.25;;;;;;;11.18;100.00;98241.94;4126550;28;20222;-44
2023/05/15 04:26:47;;;;;;;3.13;2.75;;;;;;;11.21;100.00;98238.69;4116636;28;20768;-44
2023/05/15 04:28:48;;;;;;;2.08;1.98;;;;;;;11.22;100.00;98236.75;4117974;28;20214;-44
2023/05/15 04:31:04;;;;;;;2.70;2.50;;;;;;;11.30;100.00;98244.53;4118847;28;20230;-44
2023/05/15 04:33:06;;;;;;;3.10;2.35;;;;;;;11.29;100.00;98238.22;4119714;28;20256;-45
2023/05/15 04:35:10;;;;;;;2.05;1.95;;;;;;;11.17;100.00;98245.78;4139755;28;20569;-45
2023/05/15 04:37:12;;;;;;;3.78;3.58;;;;;;;11.15;100.00;98233.41;4136676;28;20234;-44
2023/05/15 04:39:14;;;;;;;3.25;3.00;;;;;;;11.22;100.00;98240.34;4123806;28;20333;-45
2023/05/15 04:41:17;;;;;;;3.22;2.83;;;;;;;11.20;100.00;98233.47;4120899;28;20268;-44
2023/05/15 04:43:19;;;;;;;3.35;3.05;;;;;;;11.24;100.00;98231.88;4124658;28;20738;-44
2023/05/15 04:45:23;;;;;;;4.00;3.00;;;;;;;11.21;100.00;98235.97;4108085;28;20652;-44
2023/05/15 04:47:25;;;;;;;9.30;2.75;;;;;;;11.20;100.00;98237.06;4135910;28;21263;-44
2023/05/15 04:49:27;;;;;;;3.28;2.80;;;;;;;11.23;100.00;98233.78;4125301;28;20228;-44
2023/05/15 04:51:28;;;;;;;3.15;2.85;;;;;;;11.29;100.00;98232.72;4105368;28;20292;-44
2023/05/15 04:53:30;;;;;;;2.70;2.50;;;;;;;11.24;100.00;98235.41;4140980;28;20686;-44
2023/05/15 04:55:32;;;;;;;2.40;2.20;;;;;;;11.28;100.00;98230.25;4124340;28;20270;-44
2023/05/15 04:57:34;;;;;;;3.78;3.40;;;;;;;11.33;100.00;98227.56;4106283;28;20262;-44
2023/05/15 04:59:36;;;;;;;6.28;2.95;;;;;;;11.21;100.00;98235.97;4121975;28;20309;-44
2023/05/15 05:01:38;;;;;;;3.08;2.65;;;;;;;11.09;100.00;98238.03;4119295;28;20257;-44
2023/05/15 05:03:40;;;;;;;7.25;2.63;;;;;;;11.14;100.00;98229.03;4118588;28;20222;-45
2023/05/15 05:05:42;;;;;;;3.42;2.83;;;;;;;11.10;100.00;98239.69;4125296;28;20229;-43
2023/05/15 05:07:45;;;;;;;3.45;2.95;;;;;;;11.05;100.00;98236.88;4122390;28;20214;-44
2023/05/15 05:09:46;;;;;;;3.42;3.15;;;;;;;11.08;100.00;98236.38;4129152;28;20206;-44
2023/05/15 05:11:52;;;;;;;3.08;2.88;;;;;;;11.14;100.00;98235.34;4110714;28;20806;-44
2023/05/15 05:13:54;;;;;;;2.92;2.65;;;;;;;10.97;100.00;98234.63;4100918;28;20218;-44
2023/05/15 05:15:56;;;;;;;6.00;3.22;;;;;;;11.13;100.00;98233.69;4122862;28;20217;-44
2023/05/15 05:17:59;;;;;;;4.40;3.42;;;;;;;11.11;100.00;98235.84;4117169;28;20214;-44
2023/05/15 05:20:00;;;;;;;3.17;2.92;;;;;;;11.22;100.00;98237.59;4119471;28;20210;-44
2023/05/15 05:22:04;;;;;;;2.95;2.75;;;;;;;11.33;100.00;98236.63;4133754;28;20253;-45
2023/05/15 05:24:06;;;;;;;3.42;3.15;;;;;;;11.46;100.00;98238.91;4122058;28;20220;-46
2023/05/15 05:26:08;;;;;;;4.53;3.20;;;;;;;11.49;100.00;98235.63;4138606;28;20216;-60
2023/05/15 05:28:10;;;;;;;5.18;3.63;;;;;;;11.56;100.00;98236.22;4136602;28;20308;-46
2023/05/15 05:30:12;;;;;;;9.20;3.80;;;;;;;11.58;100.00;98236.81;4142374;28;20209;-45
2023/05/15 05:32:13;;;;;;;3.15;2.95;;;;;;;11.63;100.00;98239.59;4115954;28;20206;-45
2023/05/15 05:34:15;;;;;;;5.72;3.83;;;;;;;11.68;100.00;98234.16;4120773;28;20781;-44
2023/05/15 05:36:17;;;;;;;10.13;3.35;;;;;;;11.54;100.00;98230.19;4137224;28;20209;-45
2023/05/15 05:38:22;;;;;;;9.50;3.78;;;;;;;11.59;100.00;98233.00;4133467;28;20256;-44
2023/05/15 05:40:24;;;;;;;3.83;3.30;;;;;;;11.62;100.00;98232.47;4136241;28;20232;-45
2023/05/15 05:42:26;;;;;;;9.32;3.58;;;;;;;11.68;100.00;98230.59;4138461;28;20268;-44
2023/05/15 05:44:33;;;;;;;5.20;3.58;;;;;;;12.06;100.00;98233.00;4121702;28;20246;-45
2023/05/15 05:46:36;;;;;;;9.18;3.63;;;;;;;12.37;100.00;98235.63;4140628;28;20232;-44
2023/05/15 05:48:39;;;;;;;4.47;3.05;;;;;;;12.54;100.00;98236.25;4110869;28;22281;-44
2023/05/15 05:50:42;;;;;;;3.47;3.15;;;;;;;12.78;100.00;98234.66;4129334;28;20730;-44
2023/05/15 05:52:47;;;;;;;3.13;2.92;;;;;;;12.69;100.00;98236.28;4127641;28;20249;-44
2023/05/15 05:54:50;;;;;;;5.53;3.28;;;;;;;12.93;100.00;98229.22;4126623;28;20213;-46
2023/05/15 05:56:53;;;;;;;4.32;3.42;;;;;;;13.27;100.00;98235.88;4126525;28;20209;-44
2023/05/15 05:58:55;;;;;;;4.30;2.67;;;;;;;13.56;100.00;98228.72;4124678;28;20213;-44
2023/05/15 06:00:59;;;;;;;2.95;2.75;;;;;;;13.72;100.00;98233.13;4124328;28;20248;-45
2023/05/15 06:03:01;;;;;;;3.05;2.80;;;;;;;14.03;100.00;98228.38;4128833;28;20214;-44
2023/05/15 06:05:05;;;;;;;3.70;3.38;;;;;;;13.89;99.67;98228.13;4116718;28;20234;-44
2023/05/15 06:07:11;;;;;;;4.32;3.53;;;;;;;13.59;100.00;98230.94;4130812;28;20682;-43
2023/05/15 06:09:16;;;;;;;3.05;2.85;;;;;;;14.01;100.00;98231.41;4127891;28;20549;-43
2023/05/15 06:11:18;;;;;;;3.65;2.60;;;;;;;14.31;100.00;98231.34;4157101;28;20311;-44
2023/05/15 06:13:21;;;;;;;3.60;2.65;;;;;;;14.48;100.00;98231.81;4125635;28;20299;-46
2023/05/15 06:15:23;;;;;;;2.97;2.75;;;;;;;14.30;99.46;98234.38;4110074;28;21212;-46
2023/05/15 06:17:27;;;;;;;2.92;2.72;;;;;;;14.64;99.46;98238.91;4114477;28;20289;-46
2023/05/15 06:19:31;;;;;;;2.72;2.53;;;;;;;14.86;97.92;98225.59;4109599;28;20222;-44
2023/05/15 06:21:33;;;;;;;2.78;2.58;;;;;;;15.04;96.51;98233.16;4108384;28;20639;-45
2023/05/15 06:23:36;;;;;;;2.97;2.30;;;;;;;15.04;95.03;98233.16;4142761;28;20217;-45
2023/05/15 06:25:42;;;;;;;2.53;1.95;;;;;;;15.33;95.37;98238.78;4109977;28;20206;-48
2023/05/15 06:27:43;;;;;;;3.33;1.98;;;;;;;15.39;93.25;98241.25;4135226;28;20237;-45
2023/05/15 06:29:45;;;;;;;2.47;2.28;;;;;;;15.49;93.32;98238.38;4119438;28;20666;-45
2023/05/15 06:31:47;;;;;;;2.80;2.00;;;;;;;15.71;92.24;98238.72;4123593;28;20675;-45
2023/05/15 06:33:49;;;;;;;2.17;1.98;;;;;;;15.88;92.20;98241.91;4109119;28;20222;-44
2023/05/15 06:35:51;;;;;;;2.38;2.17;;;;;;;15.98;90.60;98247.34;4141215;28;20292;-45
2023/05/15 06:37:54;;;;;;;2.30;2.10;;;;;;;15.24;92.59;98246.00;4134552;28;20217;-44
2023/05/15 06:39:58;;;;;;;2.40;2.05;;;;;;;15.19;95.62;98243.28;4120812;28;20298;-45
2023/05/15 06:42:00;;;;;;;2.47;2.28;;;;;;;15.44;94.89;98251.41;4122073;28;20661;-45
2023/05/15 06:44:02;;;;;;;3.03;2.83;;;;;;;15.54;94.18;98252.16;4122638;28;20210;-45
2023/05/15 06:46:04;;;;;;;2.20;2.10;;;;;;;15.73;93.71;98241.22;4139804;28;21152;-46
2023/05/15 06:48:06;;;;;;;3.35;1.83;;;;;;;16.00;93.32;98236.81;4122365;28;20297;-46
2023/05/15 06:50:09;;;;;;;3.83;2.67;;;;;;;15.77;90.74;98245.84;4120587;28;20349;-45
2023/05/15 06:52:10;;;;;;;3.10;2.25;;;;;;;15.76;92.02;98244.22;4139972;28;20651;-45
2023/05/15 06:54:12;;;;;;;4.85;3.97;;;;;;;15.95;91.30;98247.91;4142580;28;20595;-46
2023/05/15 06:56:14;;;;;;;2.92;2.50;;;;;;;16.22;92.18;98248.16;4136788;28;20292;-45
2023/05/15 06:58:16;;;;;;;2.80;2.40;;;;;;;16.52;90.69;98256.16;4138212;28;20236;-45
2023/05/15 07:00:18;;;;;;;5.88;2.30;;;;;;;16.49;91.73;98248.44;4141248;28;20248;-45
2023/05/15 07:02:20;;;;;;;2.92;2.05;;;;;;;16.80;89.31;98244.19;4142392;28;21055;-45
2023/05/15 07:04:22;;;;;;;3.03;2.25;;;;;;;16.96;88.36;98242.84;4136891;28;20209;-45
2023/05/15 07:06:25;;;;;;;3.42;2.55;;;;;;;16.98;87.43;98245.31;4138271;28;20659;-45
2023/05/15 07:08:29;;;;;;;2.72;2.53;;;;;;;17.03;88.43;98243.31;4118169;28;20637;-44
2023/05/15 07:10:31;;;;;;;2.30;2.10;;;;;;;17.15;87.85;98244.53;4118842;28;20259;-46
2023/05/15 07:12:33;;;;;;;2.83;2.10;;;;;;;17.49;86.69;98241.53;4117727;28;20267;-46
2023/05/15 07:14:34;;;;;;;2.05;1.95;;;;;;;17.76;85.42;98241.63;4104567;28;20585;-45
2023/05/15 07:16:36;;;;;;;3.20;2.15;;;;;;;18.06;85.16;98241.09;4138690;28;20300;-45
2023/05/15 07:18:38;;;;;;;3.10;2.85;;;;;;;17.42;84.13;98238.31;4125966;28;20264;-45
2023/05/15 07:20:40;;;;;;;3.03;2.80;;;;;;;17.28;84.80;98235.47;4112408;28;20237;-45
2023/05/15 07:22:42;;;;;;;2.85;2.65;;;;;;;17.34;85.49;98238.97;4128113;28;20257;-45
2023/05/15 07:24:56;;;;;;;3.85;3.20;;;;;;;17.45;84.65;98234.97;4125091;28;20209;-45
2023/05/15 07:26:58;;;;;;;3.75;3.13;;;;;;;17.79;84.96;98230.78;4124547;28;20234;-44
2023/05/15 07:28:59;;;;;;;3.05;2.75;;;;;;;18.16;82.95;98229.81;4121801;28;20252;-45
2023/05/15 07:31:02;;;;;;;5.18;2.63;;;;;;;18.17;81.94;98237.00;4122093;28;20264;-45
2023/05/15 07:33:03;;;;;;;3.65;2.80;;;;;;;18.13;82.56;98241.53;4126132;28;20237;-46
2023/05/15 07:35:06;;;;;;;4.07;3.22;;;;;;;18.03;80.55;98231.44;4128430;28;20224;-45
2023/05/15 07:37:07;;;;;;;4.18;3.25;;;;;;;18.01;83.76;98235.66;4128904;28;20217;-45
2023/05/15 07:39:09;;;;;;;3.25;3.00;;;;;;;18.37;81.67;98231.09;4129236;28;20771;-45
2023/05/15 07:41:11;;;;;;;3.28;3.08;;;;;;;18.51;79.05;98243.03;4123605;28;20730;-45
2023/05/15 07:43:13;;;;;;;2.88;2.67;;;;;;;18.86;80.32;98229.22;4126328;28;20217;-45
2023/05/15 07:45:20;;;;;;;3.08;2.85;;;;;;;18.93;79.00;98239.94;4114469;28;20217;-47
2023/05/15 07:47:21;;;;;;;2.58;2.25;;;;;;;19.25;78.51;98232.28;4106389;28;20240;-45
2023/05/15 07:49:23;;;;;;;3.70;3.17;;;;;;;19.47;77.53;98232.31;4122467;28;20206;-45
2023/05/15 07:51:25;;;;;;;3.45;3.15;;;;;;;19.62;76.88;98237.50;4103895;28;20611;-45
2023/05/15 07:53:27;;;;;;;2.67;2.38;;;;;;;19.57;77.07;98234.03;4120699;28;20612;-45
2023/05/15 07:55:29;;;;;;;3.28;2.90;;;;;;;19.66;75.93;98227.38;4107777;28;20217;-45
2023/05/15 07:57:31;;;;;;;2.55;2.35;;;;;;;19.78;75.69;98232.38;4124320;28;20237;-47
2023/05/15 07:59:34;;;;;;;2.75;2.53;;;;;;;19.77;75.69;98225.19;4141254;28;20300;-45
2023/05/15 08:01:36;;;;;;;3.28;2.95;;;;;;;19.75;75.86;98230.22;4120867;28;20229;-46
2023/05/15 08:03:37;;;;;;;3.95;3.53;;;;;;;19.90;75.21;98235.41;4121206;28;20202;-45
2023/05/15 08:05:39;;;;;;;3.80;3.40;;;;;;;20.11;74.84;98223.47;4125615;28;20703;-45
2023/05/15 08:07:41;;;;;;;3.50;3.08;;;;;;;19.82;72.73;98233.38;4123838;28;20237;-45
2023/05/15 08:09:43;;;;;;;3.13;2.83;;;;;;;19.45;73.55;98226.25;4121638;28;20243;-46
2023/05/15 08:11:44;;;;;;;4.05;3.75;;;;;;;20.00;75.60;98218.47;4122319;28;20252;-45
2023/05/15 08:13:46;;;;;;;3.50;3.10;;;;;;;20.09;73.51;98216.59;4122303;28;21591;-45
2023/05/15 08:15:48;;;;;;;4.47;4.18;;;;;;;19.70;76.67;98224.78;4120813;28;20232;-44
2023/05/15 08:17:50;;;;;;;3.67;3.38;;;;;;;19.99;74.13;98220.41;4124647;28;20217;-44
2023/05/15 08:19:52;;;;;;;3.70;3.40;;;;;;;20.12;73.49;98218.75;4104692;28;20750;-45
2023/05/15 08:21:54;;;;;;;3.83;3.53;;;;;;;20.04;72.95;98216.72;4106379;28;20268;-45
2023/05/15 08:23:57;;;;;;;3.45;3.20;;;;;;;20.51;76.76;98227.09;4115350;28;20245;-45
2023/05/15 08:25:59;;;;;;;3.85;3.20;;;;;;;20.54;73.29;98226.44;4119428;28;20237;-44
2023/05/15 08:28:02;;;;;;;3.35;3.15;;;;;;;20.33;72.34;98225.38;4116909;28;20659;-45
2023/05/15 08:30:05;;;;;;;3.40;3.10;;;;;;;20.23;70.93;98222.88;4120945;28;20895;-44
2023/05/15 08:32:14;;;;;;;3.88;3.58;;;;;;;20.16;71.72;98216.94;4229528;27;20573;-46
2023/05/15 08:34:15;;;;;;;4.22;3.92;;;;;;;19.92;73.28;98219.25;4184160;28;20310;-45
2023/05/15 08:36:18;;;;;;;4.22;3.25;;;;;;;19.87;72.39;98233.25;4204429;28;20663;-46
2023/05/15 08:38:21;;;;;;;3.50;3.17;;;;;;;20.10;73.03;98215.47;4199587;28;20209;-46
2023/05/15 08:40:23;;;;;;;3.38;3.17;;;;;;;20.24;71.09;98216.19;4187007;28;20303;-45
2023/05/15 08:42:47;;;;;;;3.53;3.33;;;;;;;19.92;71.55;98227.56;4182488;28;20214;-45
2023/05/15 08:44:49;;;;;;;3.75;3.45;;;;;;;19.82;72.32;98222.25;4165758;28;20234;-45
2023/05/15 08:46:52;;;;;;;4.95;3.92;;;;;;;19.61;72.75;98223.91;4183886;28;20558;-45
2023/05/15 08:48:56;;;;;;;4.00;3.67;;;;;;;19.47;72.86;98217.59;4185283;28;20207;-45
2023/05/15 08:50:58;;;;;;;4.18;3.80;;;;;;;19.33;74.24;98222.38;4201595;28;20339;-44
2023/05/15 08:53:00;;;;;;;3.97;3.67;;;;;;;19.50;73.80;98219.75;4196218;28;20208;-44
2023/05/15 08:55:03;;;;;;;3.47;3.28;;;;;;;19.55;74.76;98219.63;4186669;28;20625;-44
2023/05/15 08:57:06;;;;;;;4.32;3.50;;;;;;;19.63;75.03;98227.19;4184058;28;20649;-44
2023/05/15 08:59:11;;;;;;;3.45;3.15;;;;;;;19.75;75.29;98222.72;4203750;28;20203;-46
2023/05/15 09:01:14;;;;;;;4.10;3.80;;;;;;;19.61;73.98;98223.91;4178905;28;20715;-45
2023/05/15 09:03:24;;;;;;;4.20;3.63;;;;;;;19.82;73.78;98219.50;4183588;28;20671;-45
2023/05/15 09:05:30;;;;;;;4.55;3.60;;;;;;;20.34;73.94;98204.78;4188298;28;20218;-45
2023/05/15 09:07:33;;;;;;;7.05;3.35;;;;;;;20.43;72.02;98208.41;4185840;28;20750;-45
2023/05/15 09:09:38;;;;;;;4.07;3.78;;;;;;;20.59;72.04;98209.63;4187332;28;20246;-45
2023/05/15 09:11:45;;;;;;;4.05;3.70;;;;;;;20.91;69.77;98214.81;4179461;28;20646;-45
2023/05/15 09:13:46;;;;;;;3.53;3.22;;;;;;;21.01;68.34;98206.16;4195693;28;20218;-44
2023/05/15 09:15:49;;;;;;;2.75;2.53;;;;;;;21.04;67.12;98205.53;4182613;28;20202;-44
2023/05/15 09:17:51;;;;;;;3.50;3.20;;;;;;;21.14;67.00;98202.41;4177622;28;20208;-46
2023/05/15 09:19:53;;;;;;;2.85;2.65;;;;;;;21.67;64.37;98191.81;4185414;28;20209;-44
2023/05/15 09:22:23;;;;;;;3.33;2.60;;;;;;;21.36;62.12;98191.13;4184321;28;20756;-44
2023/05/15 09:24:27;;;;;;;3.08;2.42;;;;;;;21.62;62.80;98198.34;4200494;28;20202;-45
2023/05/15 09:26:28;;;;;;;1.80;1.70;;;;;;;21.69;57.65;98193.09;4183455;28;20215;-46
2023/05/15 09:28:32;;;;;;;1.90;1.80;;;;;;;21.91;55.37;98189.31;4184811;28;20266;-46
2023/05/15 09:30:42;;;;;;;2.88;1.83;;;;;;;21.70;56.77;98183.59;4187413;28;20223;-46
2023/05/15 09:32:44;;;;;;;2.08;1.88;;;;;;;22.14;57.76;98187.94;4196169;28;20201;-44
2023/05/15 09:34:46;;;;;;;3.67;2.63;;;;;;;21.84;54.15;98189.00;4183563;28;20720;-46
2023/05/15 09:36:47;;;;;;;2.47;2.28;;;;;;;21.98;54.62;98190.41;4184857;28;20214;-45